Terminal Aerodrome Forecast
Issued by NWS

Home | Current Version | Previous Version | Text Only | Print | Product List | Glossary On
Versions: 1 2 3 4 5 6 7 8 9 10 11 12 13 14 15 16 17 18
000
FTUS43 KMPX 221136
TAFAXN
TAF
KAXN 221136Z 2212/2312 24003KT P6SM SKC
      TEMPO 2214/2215 BKN009
     FM221800 22008KT P6SM BKN100
     FM230600 21013KT P6SM SCT030 OVC050
     FM230900 23012KT P6SM VCSH SCT020 OVC040=

USA.gov is the U.S. government's official web portal to all federal, state and local government web resources and services.